»·PEaware :: N688MA L88-KSBP

N688MA :: L88-KSBP

FLIGHT INFORMATION

Flight Status: Arrived
Operator: Privately registered:
United States
More flights under this callsign
Pilot: Scott H. (45431)
Aircraft: CESSNA 172 SKYHAWK
(C172)
More flights by this aircraft type
Origin: L88 New Cuyama
United States
Destination: KSBP San Luis Co Regl
United States
More flights between these airports :: More routes between these airports
Route:
File this flight plan on PilotEdge
Remarks:
Altitude:
(Current/Filed)
6,000ft
Speed:
(Current/Filed)
100kts
Departed: 01-Nov-23 07:28 AM
Arrived: 01-Nov-23 08:02 AM
Distance/Time
Traveled:
50nm/0:33
Distance/Time
To Go:
Arrived

Flight Plot

Page will automatically refresh every two minutes.


Map Options




Map Legend


Flown Route
Filed Route
Departure Airport
Arrival Airport
Navaid (VOR, NDB)
Fix

Horizontal Profiles

Position Reports

Time Latitude Longitude Heading Altitude Ground
Speed
01-Nov-23 07:16 34.942753 -119.690220 64 2160ft 0kts
01-Nov-23 07:17 34.942753 -119.690220 64 2160ft 0kts
01-Nov-23 07:18 34.942753 -119.690220 64 2160ft 0kts
01-Nov-23 07:19 34.942753 -119.690220 64 2160ft 0kts
01-Nov-23 07:20 34.942753 -119.690220 64 2160ft 0kts
01-Nov-23 07:21 34.942753 -119.690220 64 2160ft 0kts
01-Nov-23 07:22 34.942753 -119.690220 64 2160ft 0kts
01-Nov-23 07:23 34.942753 -119.690220 64 2160ft 0kts
01-Nov-23 07:23 34.942753 -119.690220 64 2162ft 0kts
01-Nov-23 07:25 34.942521 -119.690334 290 2160ft 7kts
01-Nov-23 07:26 34.942849 -119.690936 295 2157ft 0kts
01-Nov-23 07:27 34.942593 -119.691364 205 2156ft 6kts
01-Nov-23 07:28 34.937430 -119.677001 130 2408ft 77kts
01-Nov-23 07:28 34.922676 -119.665794 154 3040ft 75kts
01-Nov-23 07:29 34.907080 -119.667920 292 3640ft 85kts
01-Nov-23 07:30 34.915976 -119.694980 293 4277ft 87kts
01-Nov-23 07:32 34.926455 -119.727677 294 5075ft 89kts
01-Nov-23 07:33 34.935376 -119.756218 294 5659ft 90kts
01-Nov-23 07:33 34.950263 -119.768505 352 6049ft 86kts
01-Nov-23 07:34 34.977678 -119.780332 315 6050ft 122kts
01-Nov-23 07:35 34.990889 -119.819130 293 6043ft 119kts
01-Nov-23 07:36 35.002195 -119.856421 293 6036ft 115kts
01-Nov-23 07:37 35.013236 -119.892870 294 6031ft 113kts
01-Nov-23 07:38 35.024084 -119.928716 293 6028ft 111kts
01-Nov-23 07:39 35.034881 -119.964484 293 6028ft 111kts
01-Nov-23 07:40 35.045748 -120.000474 294 6029ft 114kts
01-Nov-23 07:41 35.056908 -120.037434 294 6039ft 119kts
01-Nov-23 07:42 35.068120 -120.074751 294 6021ft 113kts
01-Nov-23 07:43 35.078849 -120.110445 294 6024ft 113kts
01-Nov-23 07:44 35.089675 -120.146783 287 6022ft 113kts
01-Nov-23 07:45 35.098731 -120.181955 275 6014ft 115kts
01-Nov-23 07:46 35.092383 -120.220459 258 6012ft 116kts
01-Nov-23 07:47 35.084124 -120.259050 258 6013ft 118kts
01-Nov-23 07:48 35.075033 -120.296963 231 5997ft 116kts
01-Nov-23 07:49 35.059206 -120.327442 298 5907ft 104kts
01-Nov-23 07:50 35.075909 -120.358358 309 5379ft 114kts
01-Nov-23 07:51 35.094362 -120.390590 309 4801ft 117kts
01-Nov-23 07:52 35.113649 -120.424239 309 4169ft 123kts
01-Nov-23 07:53 35.133399 -120.458738 308 3541ft 125kts
01-Nov-23 07:54 35.153403 -120.493680 309 2894ft 119kts
01-Nov-23 07:55 35.171237 -120.524885 309 2320ft 106kts
01-Nov-23 07:56 35.185595 -120.550150 308 1838ft 82kts
01-Nov-23 07:57 35.198241 -120.572392 306 1436ft 85kts
01-Nov-23 07:58 35.212157 -120.596718 304 972ft 78kts
01-Nov-23 07:59 35.223364 -120.616496 305 589ft 68kts
01-Nov-23 08:00 35.234271 -120.635700 305 213ft 63kts
01-Nov-23 08:01 35.237517 -120.639904 7 199ft 0kts
01-Nov-23 08:02 35.238220 -120.640889 302 198ft 11kts
01-Nov-23 08:03 35.238849 -120.641328 9 190ft 0kts
01-Nov-23 08:04 35.238849 -120.641328 9 190ft 0kts
01-Nov-23 08:05 35.238849 -120.641328 9 190ft 0kts

Navigation Log

Ident Type
Flight plan parsing failed, navigation log unavailable